createdAt,value
2018-05-06T00:00:34.420Z,5.90
2018-05-06T00:03:09.081Z,5.80
2018-05-06T00:05:43.466Z,5.80
2018-05-06T00:08:17.145Z,5.80
2018-05-06T00:10:50.773Z,5.80
2018-05-06T00:13:25.415Z,5.80
2018-05-06T00:15:59.837Z,5.70
2018-05-06T00:18:34.066Z,5.70
2018-05-06T00:21:08.491Z,5.60
2018-05-06T00:23:42.158Z,5.60
2018-05-06T00:26:15.789Z,5.60
2018-05-06T00:28:49.639Z,5.50
2018-05-06T00:31:23.266Z,5.50
2018-05-06T00:33:56.935Z,5.50
2018-05-06T00:36:31.529Z,5.50
2018-05-06T00:39:05.545Z,5.50
2018-05-06T00:41:38.965Z,5.50
2018-05-06T00:44:13.591Z,5.60
2018-05-06T00:46:47.289Z,5.60
2018-05-06T00:49:20.953Z,5.60
2018-05-06T00:51:54.576Z,5.60
2018-05-06T00:54:39.463Z,5.60
2018-05-06T00:57:13.089Z,5.60
2018-05-06T00:59:46.745Z,5.60
2018-05-06T01:02:20.392Z,5.60
2018-05-06T01:04:54.045Z,5.60
2018-05-06T01:07:27.483Z,5.50
2018-05-06T01:10:01.146Z,5.40
2018-05-06T01:12:34.882Z,5.40
2018-05-06T01:15:09.523Z,5.40
2018-05-06T01:17:43.910Z,5.30
2018-05-06T01:20:17.771Z,5.30
2018-05-06T01:22:52.359Z,5.30
2018-05-06T01:25:26.022Z,5.30
2018-05-06T01:27:59.445Z,5.30
2018-05-06T01:30:33.583Z,5.30
2018-05-06T01:33:07.203Z,5.30
2018-05-06T01:35:41.816Z,5.20
2018-05-06T01:38:15.441Z,5.30
2018-05-06T01:40:49.113Z,5.20
2018-05-06T01:43:24.543Z,5.20
2018-05-06T01:45:58.973Z,5.20
2018-05-06T01:48:34.256Z,5.20
2018-05-06T01:51:07.909Z,5.20
2018-05-06T01:53:42.013Z,5.20
2018-05-06T01:56:16.456Z,5.20
2018-05-06T01:58:50.076Z,5.10
2018-05-06T02:01:23.745Z,5.10
2018-05-06T02:03:58.138Z,5.10
2018-05-06T02:06:31.793Z,5.10
2018-05-06T02:09:04.779Z,5.00
2018-05-06T02:11:39.416Z,5.00
2018-05-06T02:14:14.011Z,4.90
2018-05-06T02:16:47.681Z,4.90
2018-05-06T02:19:22.068Z,4.80
2018-05-06T02:21:55.733Z,4.80
2018-05-06T02:24:30.325Z,4.80
2018-05-06T02:27:04.007Z,4.80
2018-05-06T02:29:37.630Z,4.80
2018-05-06T02:32:12.820Z,4.80
2018-05-06T02:34:46.460Z,4.80
2018-05-06T02:37:20.905Z,4.80
2018-05-06T02:39:54.530Z,4.80
2018-05-06T02:42:29.179Z,4.80
2018-05-06T02:45:03.795Z,4.90
2018-05-06T02:47:37.504Z,4.90
2018-05-06T02:50:12.109Z,5.00
2018-05-06T02:52:45.785Z,5.10
2018-05-06T02:55:19.411Z,5.30
2018-05-06T02:57:54.060Z,5.50
2018-05-06T03:00:29.205Z,5.90
2018-05-06T03:03:03.820Z,5.90
2018-05-06T03:05:37.445Z,6.00
2018-05-06T03:08:11.112Z,6.00
2018-05-06T03:10:44.769Z,6.00
2018-05-06T03:13:19.408Z,6.00
2018-05-06T03:15:53.771Z,6.10
2018-05-06T03:18:27.440Z,6.10
2018-05-06T03:21:01.074Z,6.20
2018-05-06T03:23:34.411Z,6.30
2018-05-06T03:26:08.025Z,6.30
2018-05-06T03:28:42.717Z,6.40
2018-05-06T03:31:16.348Z,6.40
2018-05-06T03:33:50.008Z,6.40
2018-05-06T03:36:24.604Z,6.50
2018-05-06T03:38:58.370Z,6.60
2018-05-06T03:41:32.052Z,6.60
2018-05-06T03:44:06.168Z,6.60
2018-05-06T03:46:39.794Z,6.60
2018-05-06T03:49:13.450Z,6.60
2018-05-06T03:51:47.072Z,6.70
2018-05-06T03:54:20.727Z,6.80
2018-05-06T03:57:06.499Z,6.80
2018-05-06T03:59:51.215Z,6.90
2018-05-06T04:05:25.663Z,6.90
2018-05-06T04:07:59.285Z,6.90
2018-05-06T04:10:32.944Z,6.90
2018-05-06T04:13:06.564Z,7.00
2018-05-06T04:15:41.012Z,7.00
2018-05-06T04:18:14.640Z,7.10
2018-05-06T04:20:49.072Z,7.20
2018-05-06T04:23:23.477Z,7.30
2018-05-06T04:25:57.201Z,7.30
2018-05-06T04:28:31.802Z,7.40
2018-05-06T04:31:06.215Z,7.50
2018-05-06T04:33:40.347Z,7.50
2018-05-06T04:36:14.871Z,7.70
2018-05-06T04:38:50.548Z,7.60
2018-05-06T04:41:24.900Z,7.80
2018-05-06T04:44:10.416Z,7.90
2018-05-06T04:46:44.496Z,8.10
2018-05-06T04:52:05.916Z,11.80
2018-05-06T04:54:39.614Z,11.80
2018-05-06T04:57:13.243Z,13.40
2018-05-06T04:59:48.673Z,15.70
2018-05-06T05:02:22.310Z,15.70
2018-05-06T05:04:56.945Z,16.20
2018-05-06T05:07:31.551Z,15.70
2018-05-06T05:10:04.912Z,14.70
2018-05-06T05:12:39.502Z,13.80
2018-05-06T05:15:13.184Z,13.10
2018-05-06T05:17:46.822Z,13.00
2018-05-06T05:20:20.835Z,13.10
2018-05-06T05:22:54.478Z,13.10
2018-05-06T05:25:28.150Z,13.00
2018-05-06T05:28:01.802Z,13.10
2018-05-06T05:30:35.472Z,13.70
2018-05-06T05:33:10.855Z,17.30
2018-05-06T05:35:46.052Z,17.20
2018-05-06T05:38:20.245Z,19.50
2018-05-06T05:41:07.901Z,20.00
2018-05-06T05:43:42.190Z,20.80
2018-05-06T05:46:16.412Z,20.80
2018-05-06T05:48:51.640Z,20.70
2018-05-06T05:51:25.881Z,20.50
2018-05-06T05:54:00.090Z,19.80
2018-05-06T05:56:34.332Z,18.70
2018-05-06T05:59:08.524Z,18.10
2018-05-06T06:01:42.776Z,18.10
2018-05-06T06:04:16.974Z,18.30
2018-05-06T06:06:51.210Z,18.50
2018-05-06T06:09:26.177Z,18.70
2018-05-06T06:12:00.412Z,18.80
2018-05-06T06:14:34.601Z,20.20
2018-05-06T06:17:09.814Z,20.40
2018-05-06T06:19:44.784Z,24.20
2018-05-06T06:22:19.022Z,24.10
2018-05-06T06:24:53.207Z,25.60
2018-05-06T06:27:28.441Z,27.00
2018-05-06T06:30:02.675Z,27.90
2018-05-06T06:32:36.925Z,27.90
2018-05-06T06:35:11.906Z,28.40
2018-05-06T06:37:46.150Z,28.40
2018-05-06T06:40:21.356Z,29.10
2018-05-06T06:42:55.618Z,29.40
2018-05-06T06:45:29.828Z,29.30
2018-05-06T06:48:04.087Z,29.60
2018-05-06T06:50:38.280Z,29.00
2018-05-06T06:53:12.542Z,28.60
2018-05-06T06:55:47.393Z,28.40
2018-05-06T06:58:22.507Z,27.10
2018-05-06T07:00:56.709Z,27.10
2018-05-06T07:03:47.640Z,28.30
2018-05-06T07:06:22.825Z,28.70
2018-05-06T07:08:58.004Z,28.70
2018-05-06T07:11:32.025Z,27.30
2018-05-06T07:14:06.253Z,26.10
2018-05-06T07:16:40.457Z,25.40
2018-05-06T07:19:14.717Z,24.50
2018-05-06T07:21:49.863Z,24.30
2018-05-06T07:24:24.095Z,24.40
2018-05-06T07:26:58.375Z,24.40
2018-05-06T07:29:32.287Z,24.90
2018-05-06T07:32:06.469Z,24.50
2018-05-06T07:34:41.476Z,23.90
2018-05-06T07:37:16.618Z,23.90
2018-05-06T07:39:50.842Z,23.40
2018-05-06T07:42:26.022Z,22.80
2018-05-06T07:45:01.223Z,22.40
2018-05-06T07:47:36.176Z,23.10
2018-05-06T07:50:10.427Z,23.10
2018-05-06T07:52:44.634Z,23.60
2018-05-06T07:55:18.880Z,23.90
2018-05-06T07:57:54.064Z,24.80
2018-05-06T08:00:29.274Z,25.00
2018-05-06T08:03:04.430Z,25.10
2018-05-06T08:05:39.681Z,24.80
2018-05-06T08:08:13.868Z,24.20
2018-05-06T08:10:49.687Z,23.60
2018-05-06T08:13:24.028Z,23.60
2018-05-06T08:15:59.229Z,23.20
2018-05-06T08:18:34.395Z,23.50
2018-05-06T08:21:09.584Z,24.10
2018-05-06T08:23:43.773Z,24.30
2018-05-06T08:26:18.000Z,24.20
2018-05-06T08:28:52.204Z,24.10
2018-05-06T08:31:26.436Z,24.00
2018-05-06T08:34:00.627Z,24.10
2018-05-06T08:36:35.633Z,23.40
2018-05-06T08:39:09.832Z,23.40
2018-05-06T08:41:44.066Z,23.50
2018-05-06T08:44:19.232Z,23.30
2018-05-06T08:46:53.465Z,22.90
2018-05-06T08:49:28.420Z,24.20
2018-05-06T08:52:02.670Z,24.20
2018-05-06T08:54:38.581Z,23.40
2018-05-06T08:57:12.830Z,23.40
2018-05-06T08:59:47.019Z,23.80
2018-05-06T09:02:21.258Z,23.90
2018-05-06T09:04:56.397Z,23.90
2018-05-06T09:07:31.399Z,24.40
2018-05-06T09:10:05.616Z,24.40
2018-05-06T09:12:39.852Z,24.70
2018-05-06T09:15:15.033Z,24.40
2018-05-06T09:17:53.664Z,24.80
2018-05-06T09:20:32.580Z,24.90
2018-05-06T09:23:07.517Z,24.70
2018-05-06T09:25:45.272Z,24.80
2018-05-06T09:28:27.849Z,25.50
2018-05-06T09:31:04.836Z,25.60
2018-05-06T09:33:42.415Z,25.20
2018-05-06T09:36:19.440Z,25.10
2018-05-06T09:38:57.950Z,25.00
2018-05-06T09:41:39.253Z,25.00
2018-05-06T09:44:14.015Z,25.20
2018-05-06T09:46:50.231Z,25.00
2018-05-06T09:49:26.933Z,25.40
2018-05-06T09:52:03.453Z,25.30
2018-05-06T09:54:41.814Z,25.80
2018-05-06T09:57:17.425Z,25.80
2018-05-06T09:59:53.129Z,26.70
2018-05-06T10:02:29.594Z,26.80
2018-05-06T10:05:09.282Z,26.40
2018-05-06T10:07:47.785Z,25.80
2018-05-06T10:10:27.976Z,26.40
2018-05-06T10:13:12.485Z,26.40
2018-05-06T10:15:54.924Z,26.40
2018-05-06T10:18:32.305Z,26.30
2018-05-06T10:21:06.493Z,26.20
2018-05-06T10:23:42.546Z,25.70
2018-05-06T10:26:17.510Z,25.80
2018-05-06T10:28:53.601Z,25.80
2018-05-06T10:31:38.273Z,25.70
2018-05-06T10:34:12.518Z,25.10
2018-05-06T10:36:48.177Z,24.30
2018-05-06T10:39:22.468Z,24.30
2018-05-06T10:41:57.622Z,24.30
2018-05-06T10:44:32.685Z,24.20
2018-05-06T10:47:08.030Z,24.20
2018-05-06T10:49:43.000Z,23.60
2018-05-06T10:52:17.193Z,23.60
2018-05-06T10:54:51.429Z,23.60
2018-05-06T10:57:25.623Z,23.90
2018-05-06T10:59:59.857Z,24.30
2018-05-06T11:02:34.049Z,24.10
2018-05-06T11:05:08.283Z,24.20
2018-05-06T11:10:26.714Z,24.10
2018-05-06T11:13:02.700Z,24.00
2018-05-06T11:15:41.477Z,23.70
2018-05-06T11:18:15.905Z,23.50
2018-05-06T11:20:51.125Z,23.70
2018-05-06T11:23:25.318Z,24.10
2018-05-06T11:26:01.300Z,24.20
2018-05-06T11:28:36.434Z,24.20
2018-05-06T11:31:11.654Z,24.30
2018-05-06T11:33:45.880Z,24.20
2018-05-06T11:36:29.529Z,24.10
2018-05-06T11:39:07.808Z,23.90
2018-05-06T11:41:46.882Z,24.20
2018-05-06T11:44:28.880Z,24.20
2018-05-06T11:49:52.273Z,24.60
2018-05-06T11:52:26.559Z,24.60
2018-05-06T11:55:01.521Z,24.10
2018-05-06T11:57:35.749Z,24.10
2018-05-06T12:00:09.962Z,24.10
2018-05-06T12:02:44.205Z,24.00
2018-05-06T12:05:18.394Z,23.80
2018-05-06T12:07:52.614Z,23.60
2018-05-06T12:10:27.600Z,23.60
2018-05-06T12:13:02.853Z,23.60
2018-05-06T12:15:37.086Z,23.60
2018-05-06T12:18:11.271Z,23.60
2018-05-06T12:20:45.517Z,23.50
2018-05-06T12:23:19.506Z,23.30
2018-05-06T12:25:53.728Z,23.30
2018-05-06T12:28:27.918Z,23.40
2018-05-06T12:31:03.144Z,23.40
2018-05-06T12:33:37.332Z,23.40
2018-05-06T12:36:12.517Z,23.10
2018-05-06T12:38:46.509Z,23.10
2018-05-06T12:41:20.526Z,23.10
2018-05-06T12:43:54.743Z,23.00
2018-05-06T12:46:28.728Z,22.90
2018-05-06T12:49:03.953Z,23.00
2018-05-06T12:51:38.182Z,23.20
2018-05-06T12:54:12.597Z,23.00
2018-05-06T12:56:47.784Z,22.90
2018-05-06T12:59:23.025Z,22.90
2018-05-06T13:01:57.225Z,22.80
2018-05-06T13:04:31.502Z,22.80
2018-05-06T13:07:07.461Z,22.80
2018-05-06T13:09:41.361Z,22.80
2018-05-06T13:12:15.584Z,22.80
2018-05-06T13:14:49.778Z,22.80
2018-05-06T13:17:24.950Z,22.90
2018-05-06T13:20:00.093Z,23.10
2018-05-06T13:22:34.347Z,23.20
2018-05-06T13:25:09.314Z,23.20
2018-05-06T13:27:43.548Z,23.10
2018-05-06T13:30:17.746Z,23.00
2018-05-06T13:32:51.977Z,22.80
2018-05-06T13:35:27.115Z,22.70
2018-05-06T13:38:01.378Z,22.60
2018-05-06T13:40:35.365Z,22.60
2018-05-06T13:43:10.375Z,22.60
2018-05-06T13:45:45.272Z,22.50
2018-05-06T13:48:21.057Z,22.70
2018-05-06T13:50:55.243Z,22.70
2018-05-06T13:53:29.268Z,22.60
2018-05-06T13:56:03.504Z,22.50
2018-05-06T13:58:37.734Z,22.50
2018-05-06T14:01:13.708Z,22.40
2018-05-06T14:03:47.896Z,22.40
2018-05-06T14:06:22.133Z,22.40
2018-05-06T14:08:57.093Z,22.60
2018-05-06T14:11:32.287Z,22.50
2018-05-06T14:14:08.202Z,22.30
2018-05-06T14:16:42.499Z,22.30
2018-05-06T14:19:16.692Z,22.20
2018-05-06T14:21:50.929Z,22.00
2018-05-06T14:24:26.083Z,21.80
2018-05-06T14:27:01.281Z,21.60
2018-05-06T14:29:35.524Z,21.40
2018-05-06T14:32:10.449Z,21.30
2018-05-06T14:34:45.656Z,21.20
2018-05-06T14:37:20.816Z,21.20
2018-05-06T14:39:56.748Z,21.20
2018-05-06T14:42:30.944Z,21.20
2018-05-06T14:45:06.912Z,21.20
2018-05-06T14:47:52.225Z,21.10
2018-05-06T14:50:26.472Z,21.20
2018-05-06T14:53:00.680Z,21.20
2018-05-06T14:55:34.940Z,21.20
2018-05-06T14:58:11.661Z,21.20
2018-05-06T15:00:48.509Z,21.20
2018-05-06T15:03:28.067Z,21.00
2018-05-06T15:06:02.380Z,21.00
2018-05-06T15:08:37.585Z,20.90
2018-05-06T15:11:12.772Z,20.80
2018-05-06T15:13:46.972Z,20.70
2018-05-06T15:16:22.366Z,20.60
2018-05-06T15:18:56.562Z,20.60
2018-05-06T15:21:32.526Z,20.50
2018-05-06T15:24:07.482Z,20.50
2018-05-06T15:26:41.718Z,20.50
2018-05-06T15:29:15.588Z,20.40
2018-05-06T15:31:49.817Z,20.30
2018-05-06T15:34:24.010Z,20.30
2018-05-06T15:36:58.248Z,20.20
2018-05-06T15:39:32.441Z,20.10
2018-05-06T15:42:06.676Z,20.10
2018-05-06T15:44:40.870Z,20.10
2018-05-06T15:47:14.772Z,20.10
2018-05-06T15:49:48.646Z,20.00
2018-05-06T15:52:22.556Z,20.00
2018-05-06T15:54:56.763Z,19.90
2018-05-06T15:57:31.081Z,19.90
2018-05-06T16:00:04.652Z,19.90
2018-05-06T16:02:59.099Z,19.80
2018-05-06T16:05:33.299Z,19.80
2018-05-06T16:08:09.327Z,19.90
2018-05-06T16:10:44.479Z,19.80
2018-05-06T16:13:18.738Z,19.90
2018-05-06T16:15:52.930Z,19.90
2018-05-06T16:18:27.169Z,20.00
2018-05-06T16:21:01.366Z,20.00
2018-05-06T16:23:35.592Z,20.00
2018-05-06T16:26:09.785Z,20.00
2018-05-06T16:28:45.768Z,20.00
2018-05-06T16:31:20.727Z,20.00
2018-05-06T16:33:54.992Z,20.00
2018-05-06T16:36:29.176Z,20.10
2018-05-06T16:39:03.409Z,20.10
2018-05-06T16:41:38.538Z,20.10
2018-05-06T16:44:13.531Z,20.10
2018-05-06T16:46:47.400Z,20.10
2018-05-06T16:49:29.412Z,20.00
2018-05-06T16:52:08.168Z,20.20
2018-05-06T16:54:44.230Z,20.10
2018-05-06T16:57:20.431Z,20.10
2018-05-06T16:59:58.095Z,20.10
2018-05-06T17:02:35.407Z,20.10
2018-05-06T17:05:12.225Z,20.10
2018-05-06T17:07:49.564Z,20.10
2018-05-06T17:10:25.806Z,20.10
2018-05-06T17:13:02.550Z,20.00
2018-05-06T17:15:45.345Z,19.90
2018-05-06T17:18:32.801Z,19.80
2018-05-06T17:21:07.915Z,19.70
2018-05-06T17:26:23.727Z,19.70
2018-05-06T17:28:57.973Z,19.70
2018-05-06T17:31:32.173Z,19.70
2018-05-06T17:34:08.929Z,19.60
2018-05-06T17:36:43.125Z,19.50
2018-05-06T17:39:17.366Z,19.40
2018-05-06T17:41:52.109Z,19.30
2018-05-06T17:44:26.341Z,19.20
2018-05-06T17:47:02.265Z,19.10
2018-05-06T17:49:37.464Z,19.00
2018-05-06T17:52:12.614Z,19.00
2018-05-06T17:54:46.847Z,18.90
2018-05-06T17:57:21.073Z,18.80
2018-05-06T17:59:55.308Z,18.80
2018-05-06T18:02:31.258Z,18.70
2018-05-06T18:05:05.629Z,18.60
2018-05-06T18:07:40.038Z,18.50
2018-05-06T18:10:14.060Z,18.50
2018-05-06T18:12:48.252Z,18.40
2018-05-06T18:15:23.460Z,18.30
2018-05-06T18:17:58.424Z,18.00
2018-05-06T18:20:32.660Z,17.90
2018-05-06T18:23:06.854Z,17.90
2018-05-06T18:25:41.105Z,17.70
2018-05-06T18:28:15.303Z,17.60
2018-05-06T18:30:49.540Z,17.50
2018-05-06T18:33:23.740Z,17.40
2018-05-06T18:35:58.940Z,17.30
2018-05-06T18:38:33.315Z,17.30
2018-05-06T18:41:07.583Z,17.20
2018-05-06T18:43:41.775Z,17.20
2018-05-06T18:46:16.000Z,17.10
2018-05-06T18:48:52.313Z,16.90
2018-05-06T18:54:21.750Z,16.70
2018-05-06T18:56:55.553Z,16.60
2018-05-06T18:59:31.886Z,16.30
2018-05-06T19:02:05.758Z,16.10
2018-05-06T19:04:46.287Z,16.10
2018-05-06T19:07:22.276Z,15.90
2018-05-06T19:12:43.459Z,15.40
2018-05-06T19:15:17.178Z,15.50
2018-05-06T19:17:50.856Z,15.40
2018-05-06T19:20:27.521Z,15.40
2018-05-06T19:23:01.934Z,15.50
2018-05-06T19:25:35.650Z,15.50
2018-05-06T19:28:10.084Z,15.60
2018-05-06T19:30:44.884Z,15.60
2018-05-06T19:33:19.012Z,15.50
2018-05-06T19:35:55.749Z,15.40
2018-05-06T19:38:30.463Z,15.30
2018-05-06T19:41:05.829Z,15.00
2018-05-06T19:43:40.452Z,15.00
2018-05-06T19:46:14.084Z,14.90
2018-05-06T19:48:47.831Z,14.90
2018-05-06T19:51:23.322Z,14.80
2018-05-06T19:53:57.950Z,14.70
2018-05-06T19:56:31.577Z,14.70
2018-05-06T19:59:04.929Z,14.70
2018-05-06T20:01:39.596Z,14.60
2018-05-06T20:04:13.296Z,14.50
2018-05-06T20:06:46.933Z,14.50
2018-05-06T20:09:21.576Z,14.40
2018-05-06T20:12:22.747Z,14.30
2018-05-06T20:14:56.499Z,14.30
2018-05-06T20:17:30.931Z,14.10
2018-05-06T20:20:03.914Z,14.10
2018-05-06T20:22:38.673Z,14.10
2018-05-06T20:25:12.310Z,13.90
2018-05-06T20:27:45.989Z,13.90
2018-05-06T20:30:21.941Z,13.90
2018-05-06T20:32:56.577Z,13.80
2018-05-06T20:35:31.163Z,13.90
2018-05-06T20:38:05.825Z,13.80
2018-05-06T20:40:39.473Z,13.70
2018-05-06T20:43:13.916Z,13.60
2018-05-06T20:45:47.574Z,13.60
2018-05-06T20:48:22.019Z,13.40
2018-05-06T20:50:55.653Z,13.40
2018-05-06T20:53:29.344Z,13.20
2018-05-06T20:56:02.973Z,13.20
2018-05-06T20:58:37.086Z,13.10
2018-05-06T21:01:13.961Z,13.10
2018-05-06T21:03:57.109Z,13.00
2018-05-06T21:06:30.934Z,12.80
2018-05-06T21:09:03.693Z,12.80
2018-05-06T21:11:37.705Z,12.80
2018-05-06T21:14:12.142Z,12.60
2018-05-06T21:16:52.111Z,12.60
2018-05-06T21:19:34.380Z,12.50
2018-05-06T21:22:13.476Z,12.50
2018-05-06T21:24:51.628Z,12.50
2018-05-06T21:27:28.883Z,12.40
2018-05-06T21:30:04.378Z,12.40
2018-05-06T21:32:39.304Z,12.40
2018-05-06T21:35:16.195Z,12.30
2018-05-06T21:40:34.161Z,12.20
2018-05-06T21:43:08.900Z,12.20
2018-05-06T21:45:43.201Z,12.20
2018-05-06T21:48:18.617Z,12.20
2018-05-06T21:50:52.821Z,12.20
2018-05-06T21:53:27.637Z,12.10
2018-05-06T21:56:02.473Z,12.10
2018-05-06T21:58:37.712Z,12.00
2018-05-06T22:01:28.775Z,12.00
2018-05-06T22:04:02.435Z,12.00
2018-05-06T22:06:35.877Z,11.90
2018-05-06T22:09:10.288Z,11.70
2018-05-06T22:11:45.723Z,11.60
2018-05-06T22:14:20.322Z,11.60
2018-05-06T22:17:01.054Z,11.50
2018-05-06T22:19:52.322Z,11.20
2018-05-06T22:22:31.272Z,11.20
2018-05-06T22:25:08.277Z,10.80
2018-05-06T22:27:43.772Z,10.70
2018-05-06T22:30:19.652Z,10.70
2018-05-06T22:32:54.193Z,10.60
2018-05-06T22:35:31.803Z,10.40
2018-05-06T22:38:06.167Z,10.30
2018-05-06T22:40:41.915Z,10.20
2018-05-06T22:43:17.114Z,10.10
2018-05-06T22:45:52.952Z,10.00
2018-05-06T22:48:31.927Z,9.90
2018-05-06T22:51:09.088Z,9.90
2018-05-06T22:53:43.461Z,9.90
2018-05-06T22:56:18.103Z,9.80
2018-05-06T22:58:54.563Z,9.80
2018-05-06T23:01:30.179Z,9.80
2018-05-06T23:04:04.580Z,9.70
2018-05-06T23:06:41.813Z,9.70
2018-05-06T23:09:16.774Z,9.70
2018-05-06T23:11:51.584Z,9.60
2018-05-06T23:14:29.136Z,9.60
2018-05-06T23:17:03.573Z,9.50
2018-05-06T23:19:39.324Z,9.50
2018-05-06T23:22:17.119Z,9.40
2018-05-06T23:24:50.746Z,9.30
2018-05-06T23:27:34.636Z,9.20
2018-05-06T23:33:04.445Z,9.00
2018-05-06T23:35:40.783Z,9.00
2018-05-06T23:38:15.365Z,8.90
2018-05-06T23:40:51.587Z,8.80
2018-05-06T23:43:25.251Z,8.80
2018-05-06T23:46:01.455Z,8.70
2018-05-06T23:48:35.131Z,8.60
2018-05-06T23:51:12.053Z,8.60
2018-05-06T23:53:49.745Z,8.40
2018-05-06T23:56:26.358Z,8.40
2018-05-06T23:59:00.148Z,8.30
